createdAt,value
2023-03-03T00:02:14.363Z,92.90
2023-03-03T00:05:19.227Z,99.72
2023-03-03T00:08:26.325Z,98.35
2023-03-03T00:11:32.434Z,103.88
2023-03-03T00:14:35.603Z,96.88
2023-03-03T00:17:38.998Z,105.45
2023-03-03T00:20:50.413Z,108.20
2023-03-03T00:23:55.128Z,111.80
2023-03-03T00:27:03.438Z,108.22
2023-03-03T00:30:19.023Z,114.70
2023-03-03T00:33:32.604Z,129.43
2023-03-03T00:36:39.593Z,130.25
2023-03-03T00:39:42.739Z,118.13
2023-03-03T00:42:50.547Z,140.35
2023-03-03T00:45:54.622Z,116.70
2023-03-03T00:48:57.828Z,129.57
2023-03-03T00:52:02.701Z,127.93
2023-03-03T00:55:07.725Z,131.90
2023-03-03T00:58:11.109Z,131.05
2023-03-03T01:01:19.911Z,121.97
2023-03-03T01:04:27.491Z,120.13
2023-03-03T01:07:32.217Z,119.95
2023-03-03T01:10:39.176Z,123.53
2023-03-03T01:13:46.027Z,122.03
2023-03-03T01:16:50.117Z,129.38
2023-03-03T01:19:54.505Z,126.07
2023-03-03T01:22:59.136Z,127.95
2023-03-03T01:26:02.341Z,129.82
2023-03-03T01:29:05.531Z,121.63
2023-03-03T01:32:08.695Z,132.98
2023-03-03T01:35:12.799Z,141.45
2023-03-03T01:38:17.620Z,151.68
2023-03-03T01:41:21.096Z,156.40
2023-03-03T01:44:24.222Z,163.63
2023-03-03T01:47:34.491Z,158.70
2023-03-03T01:53:50.862Z,146.95
2023-03-03T01:56:56.320Z,135.15
2023-03-03T02:00:14.855Z,122.35
2023-03-03T02:03:19.520Z,123.38
2023-03-03T02:06:26.178Z,125.05
2023-03-03T02:09:38.118Z,122.75
2023-03-03T02:12:44.405Z,116.05
2023-03-03T02:15:48.350Z,113.85
2023-03-03T02:18:51.905Z,117.57
2023-03-03T02:21:55.218Z,115.78
2023-03-03T02:25:03.383Z,114.22
2023-03-03T02:28:08.046Z,119.85
2023-03-03T02:31:14.269Z,112.55
2023-03-03T02:34:18.983Z,125.15
2023-03-03T02:37:22.338Z,118.43
2023-03-03T02:40:29.488Z,116.65
2023-03-03T02:43:39.823Z,129.93
2023-03-03T02:46:45.281Z,124.55
2023-03-03T02:49:48.851Z,131.63
2023-03-03T02:52:52.125Z,135.80
2023-03-03T02:55:56.152Z,125.35
2023-03-03T02:59:00.846Z,133.65
2023-03-03T03:02:07.355Z,132.45
2023-03-03T03:05:11.351Z,134.82
2023-03-03T03:08:20.945Z,135.02
2023-03-03T03:11:24.138Z,136.10
2023-03-03T03:14:28.768Z,133.98
2023-03-03T03:17:32.925Z,142.07
2023-03-03T03:20:37.867Z,139.30
2023-03-03T03:23:41.798Z,129.50
2023-03-03T03:26:45.991Z,135.93
2023-03-03T03:29:51.157Z,128.55
2023-03-03T03:32:55.025Z,122.63
2023-03-03T03:36:00.247Z,127.60
2023-03-03T03:39:06.218Z,128.05
2023-03-03T03:42:11.547Z,134.70
2023-03-03T03:45:16.547Z,133.85
2023-03-03T03:48:23.030Z,124.40
2023-03-03T03:51:26.351Z,131.23
2023-03-03T03:54:29.914Z,127.25
2023-03-03T03:57:33.504Z,136.70
2023-03-03T04:00:38.215Z,140.10
2023-03-03T04:03:41.698Z,146.13
2023-03-03T04:06:49.289Z,134.85
2023-03-03T04:09:52.810Z,139.30
2023-03-03T04:12:56.106Z,136.48
2023-03-03T04:16:02.122Z,136.70
2023-03-03T04:19:05.445Z,133.43
2023-03-03T04:22:10.538Z,130.93
2023-03-03T04:25:16.919Z,129.05
2023-03-03T04:28:22.048Z,128.90
2023-03-03T04:31:28.374Z,125.40
2023-03-03T04:34:32.441Z,141.02
2023-03-03T04:37:36.161Z,140.77
2023-03-03T04:40:41.791Z,154.73
2023-03-03T04:43:45.525Z,153.88
2023-03-03T04:46:51.331Z,156.15
2023-03-03T04:49:55.537Z,156.20
2023-03-03T04:52:58.708Z,160.05
2023-03-03T04:56:05.534Z,159.80
2023-03-03T04:59:08.911Z,145.05
2023-03-03T05:02:13.809Z,143.75
2023-03-03T05:05:17.257Z,149.82
2023-03-03T05:08:20.526Z,146.80
2023-03-03T05:11:23.774Z,136.13
2023-03-03T05:14:28.416Z,133.60
2023-03-03T05:17:33.060Z,134.88
2023-03-03T05:20:36.259Z,128.70
2023-03-03T05:23:39.449Z,125.53
2023-03-03T05:26:42.897Z,128.27
2023-03-03T05:29:46.675Z,128.00
2023-03-03T05:32:51.535Z,118.65
2023-03-03T05:35:55.812Z,123.97
2023-03-03T05:38:59.046Z,137.52
2023-03-03T05:42:02.403Z,133.88
2023-03-03T05:45:06.336Z,127.43
2023-03-03T05:48:11.194Z,131.68
2023-03-03T05:51:14.582Z,128.57
2023-03-03T05:54:17.833Z,138.75
2023-03-03T05:57:22.553Z,132.57
2023-03-03T06:00:25.853Z,129.63
2023-03-03T06:03:30.463Z,135.15
2023-03-03T06:06:33.605Z,138.00
2023-03-03T06:09:36.907Z,130.70
2023-03-03T06:12:42.036Z,140.27
2023-03-03T06:15:45.567Z,132.35
2023-03-03T06:18:50.347Z,125.55
2023-03-03T06:21:53.544Z,131.82
2023-03-03T06:24:56.702Z,118.07
2023-03-03T06:27:59.886Z,116.05
2023-03-03T06:31:03.112Z,119.30
2023-03-03T06:34:08.032Z,119.75
2023-03-03T06:37:11.762Z,115.43
2023-03-03T06:40:15.475Z,116.20
2023-03-03T06:43:18.692Z,120.25
2023-03-03T06:46:21.880Z,117.45
2023-03-03T06:49:26.504Z,122.00
2023-03-03T06:52:29.744Z,108.40
2023-03-03T06:55:32.940Z,121.65
2023-03-03T06:58:36.412Z,118.97
2023-03-03T07:01:40.150Z,125.78
2023-03-03T07:04:45.522Z,118.28
2023-03-03T07:07:48.712Z,115.05
2023-03-03T07:10:54.014Z,103.78
2023-03-03T07:13:58.090Z,117.78
2023-03-03T07:17:06.099Z,109.25
2023-03-03T07:20:19.783Z,115.38
2023-03-03T07:23:26.058Z,116.28
2023-03-03T07:26:32.905Z,116.03
2023-03-03T07:29:41.183Z,113.43
2023-03-03T07:32:46.266Z,113.93
2023-03-03T07:35:50.886Z,112.10
2023-03-03T07:38:55.654Z,102.35
2023-03-03T07:42:19.278Z,110.88
2023-03-03T07:45:29.290Z,101.45
2023-03-03T07:48:37.149Z,108.43
2023-03-03T07:51:42.679Z,104.57
2023-03-03T07:54:47.647Z,95.47
2023-03-03T07:57:59.130Z,95.93
2023-03-03T08:01:28.739Z,97.75
2023-03-03T08:04:41.984Z,108.25
2023-03-03T08:07:46.678Z,131.32
2023-03-03T08:10:51.415Z,120.97
2023-03-03T08:13:54.618Z,103.45
2023-03-03T08:17:00.491Z,99.18
2023-03-03T08:20:25.520Z,100.70
2023-03-03T08:23:30.296Z,105.95
2023-03-03T08:26:33.511Z,88.72
2023-03-03T08:29:36.707Z,91.80
2023-03-03T08:32:39.966Z,90.05
2023-03-03T08:35:43.736Z,89.40
2023-03-03T08:38:48.409Z,95.45
2023-03-03T08:41:51.598Z,95.20
2023-03-03T08:44:54.738Z,90.15
2023-03-03T08:47:59.813Z,90.93
2023-03-03T08:51:02.991Z,90.18
2023-03-03T08:54:07.604Z,93.38
2023-03-03T08:57:10.857Z,84.55
2023-03-03T09:00:17.035Z,80.03
2023-03-03T09:03:20.206Z,82.18
2023-03-03T09:06:23.430Z,85.53
2023-03-03T09:09:28.466Z,76.30
2023-03-03T09:12:35.267Z,79.55
2023-03-03T09:15:39.840Z,88.88
2023-03-03T09:18:43.674Z,78.63
2023-03-03T09:21:46.954Z,130.25
2023-03-03T09:24:55.477Z,93.80
2023-03-03T09:27:59.044Z,94.90
2023-03-03T09:31:07.401Z,95.53
2023-03-03T09:34:22.462Z,84.40
2023-03-03T09:37:32.397Z,85.20
2023-03-03T09:40:54.763Z,93.38
2023-03-03T09:44:17.259Z,86.95
2023-03-03T09:47:45.081Z,98.03
2023-03-03T09:51:01.061Z,97.38
2023-03-03T09:54:17.324Z,90.45
2023-03-03T09:57:27.053Z,89.07
2023-03-03T10:00:43.194Z,72.35
2023-03-03T10:04:00.594Z,86.18
2023-03-03T10:07:20.488Z,92.35
2023-03-03T10:11:01.661Z,89.80
2023-03-03T10:14:32.293Z,85.03
2023-03-03T10:17:48.604Z,85.47
2023-03-03T10:21:05.426Z,82.45
2023-03-03T10:24:25.492Z,78.95
2023-03-03T10:27:45.176Z,80.82
2023-03-03T10:31:10.637Z,77.28
2023-03-03T10:34:27.146Z,75.22
2023-03-03T10:37:36.993Z,75.32
2023-03-03T10:40:47.954Z,72.72
2023-03-03T10:44:15.227Z,76.22
2023-03-03T10:47:41.638Z,80.05
2023-03-03T10:50:54.914Z,77.72
2023-03-03T10:54:16.591Z,84.45
2023-03-03T10:57:29.923Z,118.40
2023-03-03T11:00:38.405Z,77.95
2023-03-03T11:04:08.819Z,84.82
2023-03-03T11:07:20.279Z,72.68
2023-03-03T11:10:38.591Z,77.65
2023-03-03T11:13:49.381Z,76.03
2023-03-03T11:17:01.635Z,77.78
2023-03-03T11:20:13.223Z,72.70
2023-03-03T11:23:33.325Z,79.68
2023-03-03T11:27:07.513Z,66.72
2023-03-03T11:30:30.044Z,77.65
2023-03-03T11:33:38.768Z,70.88
2023-03-03T11:36:50.053Z,73.65
2023-03-03T11:39:56.660Z,79.60
2023-03-03T11:43:07.236Z,72.60
2023-03-03T11:46:15.824Z,66.20
2023-03-03T11:49:24.802Z,74.97
2023-03-03T11:52:37.998Z,70.68
2023-03-03T11:55:43.745Z,67.32
2023-03-03T11:58:52.525Z,63.25
2023-03-03T12:01:58.355Z,67.03
2023-03-03T12:05:09.976Z,65.57
2023-03-03T12:08:25.148Z,58.88
2023-03-03T12:11:33.329Z,60.97
2023-03-03T12:14:57.166Z,70.07
2023-03-03T12:18:24.606Z,65.88
2023-03-03T12:21:43.385Z,59.75
2023-03-03T12:25:08.022Z,58.22
2023-03-03T12:28:17.625Z,57.78
2023-03-03T12:31:41.154Z,49.72
2023-03-03T12:34:51.865Z,60.60
2023-03-03T12:38:01.651Z,63.47
2023-03-03T12:41:12.765Z,46.95
2023-03-03T12:44:21.733Z,62.78
2023-03-03T12:47:29.542Z,58.20
2023-03-03T12:50:44.620Z,65.78
2023-03-03T12:54:01.667Z,59.78
2023-03-03T12:57:22.883Z,61.40
2023-03-03T13:00:32.335Z,58.70
2023-03-03T13:03:54.993Z,47.30
2023-03-03T13:07:05.045Z,76.18
2023-03-03T13:10:18.297Z,60.63
2023-03-03T13:13:30.303Z,86.32
2023-03-03T13:16:41.752Z,52.55
2023-03-03T13:19:50.777Z,62.35
2023-03-03T13:23:00.761Z,57.53
2023-03-03T13:26:11.299Z,59.70
2023-03-03T13:29:22.183Z,54.95
2023-03-03T13:32:32.451Z,55.78
2023-03-03T13:35:43.391Z,48.03
2023-03-03T13:38:50.884Z,57.28
2023-03-03T13:42:01.016Z,54.35
2023-03-03T13:45:17.787Z,55.95
2023-03-03T13:48:36.693Z,56.90
2023-03-03T13:51:48.791Z,52.03
2023-03-03T13:55:02.717Z,50.80
2023-03-03T13:58:16.274Z,52.38
2023-03-03T14:01:27.534Z,53.45
2023-03-03T14:04:48.140Z,48.42
2023-03-03T14:07:58.855Z,51.05
2023-03-03T14:11:12.194Z,50.60
2023-03-03T14:14:29.675Z,52.60
2023-03-03T14:17:43.408Z,54.40
2023-03-03T14:20:49.253Z,58.05
2023-03-03T14:23:59.156Z,62.28
2023-03-03T14:27:02.731Z,60.28
2023-03-03T14:30:29.634Z,56.60
2023-03-03T14:33:35.472Z,56.45
2023-03-03T14:36:41.753Z,57.72
2023-03-03T14:39:50.948Z,57.47
2023-03-03T14:42:57.461Z,60.35
2023-03-03T14:46:27.918Z,54.00
2023-03-03T14:49:34.865Z,58.30
2023-03-03T14:52:40.155Z,65.65
2023-03-03T14:55:45.426Z,70.00
2023-03-03T14:58:49.657Z,74.65
2023-03-03T15:02:01.772Z,74.97
2023-03-03T15:05:26.131Z,71.68
2023-03-03T15:08:34.101Z,82.20
2023-03-03T15:11:38.172Z,86.57
2023-03-03T15:14:46.999Z,84.47
2023-03-03T15:18:00.040Z,76.63
2023-03-03T15:21:09.295Z,77.90
2023-03-03T15:24:23.112Z,85.57
2023-03-03T15:27:31.607Z,81.65
2023-03-03T15:30:39.367Z,77.22
2023-03-03T15:33:48.523Z,76.68
2023-03-03T15:36:59.111Z,81.03
2023-03-03T15:40:15.371Z,85.07
2023-03-03T15:43:26.608Z,87.05
2023-03-03T15:46:40.858Z,87.30
2023-03-03T15:49:57.675Z,86.70
2023-03-03T15:53:14.131Z,86.18
2023-03-03T15:56:29.401Z,90.30
2023-03-03T15:59:51.014Z,89.25
2023-03-03T16:02:58.946Z,93.65
2023-03-03T16:06:07.549Z,115.97
2023-03-03T16:09:25.556Z,101.85
2023-03-03T16:12:37.830Z,122.28
2023-03-03T16:15:59.168Z,169.80
2023-03-03T16:19:20.132Z,134.73
2023-03-03T16:22:42.105Z,117.68
2023-03-03T16:26:14.278Z,128.80
2023-03-03T16:29:33.404Z,99.50
2023-03-03T16:32:43.753Z,86.38
2023-03-03T16:39:04.661Z,178.48
2023-03-03T16:42:22.335Z,124.00
2023-03-03T16:45:29.173Z,99.68
2023-03-03T16:48:44.070Z,115.93
2023-03-03T16:51:52.245Z,103.07
2023-03-03T16:55:00.565Z,97.95
2023-03-03T16:58:17.390Z,100.57
2023-03-03T17:01:29.060Z,121.32
2023-03-03T17:04:40.719Z,112.70
2023-03-03T17:07:49.662Z,107.80
2023-03-03T17:10:57.919Z,91.53
2023-03-03T17:14:18.975Z,110.95
2023-03-03T17:17:33.326Z,108.68
2023-03-03T17:20:42.991Z,115.40
2023-03-03T17:24:09.705Z,95.65
2023-03-03T17:27:18.688Z,97.43
2023-03-03T17:30:28.021Z,112.35
2023-03-03T17:34:05.508Z,87.05
2023-03-03T17:37:21.945Z,115.70
2023-03-03T17:40:40.735Z,112.65
2023-03-03T17:43:54.397Z,137.40
2023-03-03T17:47:03.651Z,142.02
2023-03-03T17:50:33.549Z,121.65
2023-03-03T17:53:58.456Z,100.30
2023-03-03T17:57:15.928Z,118.60
2023-03-03T18:00:44.222Z,103.75
2023-03-03T18:04:08.511Z,121.05
2023-03-03T18:07:28.112Z,131.77
2023-03-03T18:11:09.914Z,100.47
2023-03-03T18:14:29.639Z,141.57
2023-03-03T18:17:40.248Z,96.15
2023-03-03T18:21:03.976Z,110.38
2023-03-03T18:24:31.286Z,114.10
2023-03-03T18:27:37.183Z,110.60
2023-03-03T18:30:58.098Z,110.90
2023-03-03T18:34:08.086Z,108.20
2023-03-03T18:37:45.118Z,97.93
2023-03-03T18:40:54.701Z,105.70
2023-03-03T18:44:00.589Z,106.90
2023-03-03T18:47:05.316Z,109.97
2023-03-03T18:50:31.042Z,116.60
2023-03-03T18:53:37.228Z,129.60
2023-03-03T18:56:46.543Z,121.38
2023-03-03T18:59:59.596Z,113.13
2023-03-03T19:03:07.396Z,110.78
2023-03-03T19:06:11.637Z,112.28
2023-03-03T19:09:22.467Z,104.60
2023-03-03T19:12:56.880Z,101.20
2023-03-03T19:16:04.163Z,105.07
2023-03-03T19:19:22.080Z,103.60
2023-03-03T19:22:28.659Z,114.20
2023-03-03T19:25:34.061Z,102.60
2023-03-03T19:28:43.124Z,106.88
2023-03-03T19:31:54.433Z,100.32
2023-03-03T19:35:14.484Z,104.88
2023-03-03T19:38:28.758Z,106.18
2023-03-03T19:41:57.157Z,117.43
2023-03-03T19:45:17.818Z,113.30
2023-03-03T19:48:30.576Z,120.65
2023-03-03T19:51:39.474Z,123.15
2023-03-03T19:55:00.489Z,132.65
2023-03-03T19:58:19.202Z,117.93
2023-03-03T20:01:30.192Z,120.25
2023-03-03T20:04:46.199Z,129.40
2023-03-03T20:07:57.708Z,134.88
2023-03-03T20:11:08.120Z,120.25
2023-03-03T20:14:32.636Z,109.85
2023-03-03T20:17:53.061Z,112.68
2023-03-03T20:24:30.992Z,115.45
2023-03-03T20:27:41.948Z,103.65
2023-03-03T20:30:57.711Z,143.15
2023-03-03T20:34:10.323Z,298.60
2023-03-03T20:37:19.091Z,96.10
2023-03-03T20:40:30.877Z,95.28
2023-03-03T20:43:44.463Z,101.82
2023-03-03T20:47:01.843Z,107.53
2023-03-03T20:50:20.170Z,94.35
2023-03-03T20:53:31.808Z,97.95
2023-03-03T20:56:43.678Z,97.40
2023-03-03T20:59:55.334Z,98.13
2023-03-03T21:03:12.054Z,98.40
2023-03-03T21:06:17.948Z,96.95
2023-03-03T21:09:27.557Z,104.00
2023-03-03T21:12:32.227Z,100.22
2023-03-03T21:15:36.506Z,99.63
2023-03-03T21:18:41.321Z,111.25
2023-03-03T21:21:47.000Z,104.65
2023-03-03T21:24:54.459Z,112.00
2023-03-03T21:28:20.363Z,100.30
2023-03-03T21:31:23.912Z,112.18
2023-03-03T21:34:32.646Z,122.63
2023-03-03T21:37:50.756Z,114.38
2023-03-03T21:41:01.587Z,106.75
2023-03-03T21:44:38.899Z,93.75
2023-03-03T21:47:42.467Z,95.75
2023-03-03T21:50:52.166Z,97.10
2023-03-03T21:53:56.337Z,95.32
2023-03-03T21:57:03.084Z,113.93
2023-03-03T22:00:11.140Z,95.10
2023-03-03T22:03:20.038Z,111.65
2023-03-03T22:06:24.951Z,254.15
2023-03-03T22:09:29.035Z,78.72
2023-03-03T22:12:32.394Z,85.75
2023-03-03T22:15:35.657Z,81.40
2023-03-03T22:18:38.943Z,127.15
2023-03-03T22:21:44.026Z,75.47
2023-03-03T22:24:47.410Z,80.80
2023-03-03T22:27:50.716Z,111.93
2023-03-03T22:30:54.154Z,77.05
2023-03-03T22:33:57.511Z,84.63
2023-03-03T22:37:02.164Z,85.50
2023-03-03T22:40:09.306Z,103.97
2023-03-03T22:43:14.601Z,102.05
2023-03-03T22:46:18.514Z,83.82
2023-03-03T22:49:21.774Z,89.22
2023-03-03T22:52:26.401Z,88.60
2023-03-03T22:55:29.812Z,81.85
2023-03-03T22:58:33.016Z,82.20
2023-03-03T23:01:36.323Z,80.88
2023-03-03T23:04:39.677Z,77.20
2023-03-03T23:07:44.540Z,85.68
2023-03-03T23:10:48.593Z,102.85
2023-03-03T23:13:51.799Z,85.10
2023-03-03T23:16:55.096Z,92.28
2023-03-03T23:19:58.291Z,82.57
2023-03-03T23:23:05.455Z,149.27
2023-03-03T23:26:09.758Z,87.18
2023-03-03T23:29:13.032Z,92.72
2023-03-03T23:32:16.275Z,88.10
2023-03-03T23:35:20.072Z,96.10
2023-03-03T23:38:24.751Z,91.65
2023-03-03T23:41:27.968Z,90.82
2023-03-03T23:44:31.192Z,92.72
2023-03-03T23:47:34.402Z,80.57
2023-03-03T23:50:38.166Z,83.18
2023-03-03T23:53:42.779Z,85.03
2023-03-03T23:56:46.084Z,86.10
2023-03-03T23:59:49.820Z,86.22
